sensor_id;sensor_type;location;lat;lon;timestamp;temperature;humidity
85036;DHT22;75357;49.780;9.448;2024-02-14T00:00:36;2.90;86.50
85036;DHT22;75357;49.780;9.448;2024-02-14T00:03:05;2.90;86.50
85036;DHT22;75357;49.780;9.448;2024-02-14T00:05:36;2.90;86.60
85036;DHT22;75357;49.780;9.448;2024-02-14T00:08:05;2.90;86.50
85036;DHT22;75357;49.780;9.448;2024-02-14T00:10:35;2.90;86.30
85036;DHT22;75357;49.780;9.448;2024-02-14T00:13:04;2.80;86.40
85036;DHT22;75357;49.780;9.448;2024-02-14T00:15:33;2.80;86.40
85036;DHT22;75357;49.780;9.448;2024-02-14T00:18:03;2.70;86.40
85036;DHT22;75357;49.780;9.448;2024-02-14T00:20:32;2.70;86.30
85036;DHT22;75357;49.780;9.448;2024-02-14T00:23:04;2.70;86.60
85036;DHT22;75357;49.780;9.448;2024-02-14T00:25:33;2.70;86.70
85036;DHT22;75357;49.780;9.448;2024-02-14T00:28:02;2.70;85.90
85036;DHT22;75357;49.780;9.448;2024-02-14T00:30:32;2.70;86.20
85036;DHT22;75357;49.780;9.448;2024-02-14T00:33:01;2.60;86.50
85036;DHT22;75357;49.780;9.448;2024-02-14T00:35:30;2.70;86.30
85036;DHT22;75357;49.780;9.448;2024-02-14T00:37:59;2.60;86.40
85036;DHT22;75357;49.780;9.448;2024-02-14T00:40:30;2.60;86.40
85036;DHT22;75357;49.780;9.448;2024-02-14T00:42:59;2.60;86.50
85036;DHT22;75357;49.780;9.448;2024-02-14T00:45:30;2.60;86.30
85036;DHT22;75357;49.780;9.448;2024-02-14T00:47:58;2.60;86.00
85036;DHT22;75357;49.780;9.448;2024-02-14T00:50:28;2.60;86.30
85036;DHT22;75357;49.780;9.448;2024-02-14T00:52:57;2.70;86.60
85036;DHT22;75357;49.780;9.448;2024-02-14T00:55:27;2.70;86.30
85036;DHT22;75357;49.780;9.448;2024-02-14T00:57:58;2.80;86.00
85036;DHT22;75357;49.780;9.448;2024-02-14T01:00:26;2.90;85.80
85036;DHT22;75357;49.780;9.448;2024-02-14T01:02:58;2.90;85.70
85036;DHT22;75357;49.780;9.448;2024-02-14T01:05:30;3.00;85.50
85036;DHT22;75357;49.780;9.448;2024-02-14T01:07:58;3.00;85.50
85036;DHT22;75357;49.780;9.448;2024-02-14T01:10:27;3.00;85.50
85036;DHT22;75357;49.780;9.448;2024-02-14T01:12:57;2.90;85.90
85036;DHT22;75357;49.780;9.448;2024-02-14T01:15:26;2.90;86.40
85036;DHT22;75357;49.780;9.448;2024-02-14T01:17:55;3.00;86.20
85036;DHT22;75357;49.780;9.448;2024-02-14T01:20:23;3.10;85.90
85036;DHT22;75357;49.780;9.448;2024-02-14T01:22:54;3.20;85.50
85036;DHT22;75357;49.780;9.448;2024-02-14T01:25:23;3.20;85.20
85036;DHT22;75357;49.780;9.448;2024-02-14T01:27:51;3.20;85.10
85036;DHT22;75357;49.780;9.448;2024-02-14T01:30:23;3.10;85.00
85036;DHT22;75357;49.780;9.448;2024-02-14T01:32:52;3.20;85.30
85036;DHT22;75357;49.780;9.448;2024-02-14T01:35:21;3.20;85.00
85036;DHT22;75357;49.780;9.448;2024-02-14T01:37:50;3.20;85.10
85036;DHT22;75357;49.780;9.448;2024-02-14T01:40:19;3.20;84.90
85036;DHT22;75357;49.780;9.448;2024-02-14T01:42:48;3.20;85.30
85036;DHT22;75357;49.780;9.448;2024-02-14T01:45:19;3.30;85.00
85036;DHT22;75357;49.780;9.448;2024-02-14T01:47:51;3.40;84.90
85036;DHT22;75357;49.780;9.448;2024-02-14T01:50:21;3.40;84.90
85036;DHT22;75357;49.780;9.448;2024-02-14T01:52:58;3.50;84.90
85036;DHT22;75357;49.780;9.448;2024-02-14T01:55:28;3.50;84.60
85036;DHT22;75357;49.780;9.448;2024-02-14T01:57:57;3.60;84.80
85036;DHT22;75357;49.780;9.448;2024-02-14T02:00:39;3.60;84.80
85036;DHT22;75357;49.780;9.448;2024-02-14T02:03:10;3.70;84.80
85036;DHT22;75357;49.780;9.448;2024-02-14T02:05:39;3.70;84.90
85036;DHT22;75357;49.780;9.448;2024-02-14T02:08:08;3.70;84.80
85036;DHT22;75357;49.780;9.448;2024-02-14T02:10:37;3.80;85.20
85036;DHT22;75357;49.780;9.448;2024-02-14T02:13:06;3.80;85.30
85036;DHT22;75357;49.780;9.448;2024-02-14T02:15:34;3.90;85.40
85036;DHT22;75357;49.780;9.448;2024-02-14T02:18:04;4.00;85.40
85036;DHT22;75357;49.780;9.448;2024-02-14T02:20:37;4.00;85.30
85036;DHT22;75357;49.780;9.448;2024-02-14T02:23:07;4.10;85.20
85036;DHT22;75357;49.780;9.448;2024-02-14T02:25:36;4.10;85.30
85036;DHT22;75357;49.780;9.448;2024-02-14T02:28:05;4.10;85.30
85036;DHT22;75357;49.780;9.448;2024-02-14T02:30:33;4.10;85.40
85036;DHT22;75357;49.780;9.448;2024-02-14T02:33:02;4.10;85.50
85036;DHT22;75357;49.780;9.448;2024-02-14T02:35:31;4.10;85.60
85036;DHT22;75357;49.780;9.448;2024-02-14T02:38:04;4.20;85.50
85036;DHT22;75357;49.780;9.448;2024-02-14T02:40:33;4.20;85.20
85036;DHT22;75357;49.780;9.448;2024-02-14T02:43:02;4.20;85.20
85036;DHT22;75357;49.780;9.448;2024-02-14T02:45:30;4.30;85.30
85036;DHT22;75357;49.780;9.448;2024-02-14T02:47:59;4.30;85.50
85036;DHT22;75357;49.780;9.448;2024-02-14T02:50:28;4.30;85.50
85036;DHT22;75357;49.780;9.448;2024-02-14T02:52:57;4.30;85.40
85036;DHT22;75357;49.780;9.448;2024-02-14T02:55:25;4.30;85.80
85036;DHT22;75357;49.780;9.448;2024-02-14T02:57:55;4.30;85.90
85036;DHT22;75357;49.780;9.448;2024-02-14T03:00:23;4.30;85.80
85036;DHT22;75357;49.780;9.448;2024-02-14T03:02:53;4.30;85.60
85036;DHT22;75357;49.780;9.448;2024-02-14T03:05:22;4.30;85.60
85036;DHT22;75357;49.780;9.448;2024-02-14T03:07:53;4.30;85.70
85036;DHT22;75357;49.780;9.448;2024-02-14T03:10:24;4.30;85.50
85036;DHT22;75357;49.780;9.448;2024-02-14T03:12:54;4.30;85.70
85036;DHT22;75357;49.780;9.448;2024-02-14T03:15:23;4.20;85.80
85036;DHT22;75357;49.780;9.448;2024-02-14T03:17:53;4.20;86.10
85036;DHT22;75357;49.780;9.448;2024-02-14T03:20:22;4.20;85.80
85036;DHT22;75357;49.780;9.448;2024-02-14T03:22:50;4.20;85.10
85036;DHT22;75357;49.780;9.448;2024-02-14T03:25:21;4.10;85.20
85036;DHT22;75357;49.780;9.448;2024-02-14T03:27:50;4.10;85.40
85036;DHT22;75357;49.780;9.448;2024-02-14T03:30:22;4.10;85.60
85036;DHT22;75357;49.780;9.448;2024-02-14T03:32:51;4.10;85.60
85036;DHT22;75357;49.780;9.448;2024-02-14T03:35:20;4.20;85.50
85036;DHT22;75357;49.780;9.448;2024-02-14T03:37:49;4.30;85.10
85036;DHT22;75357;49.780;9.448;2024-02-14T03:40:19;4.30;85.00
85036;DHT22;75357;49.780;9.448;2024-02-14T03:42:49;4.30;85.60
85036;DHT22;75357;49.780;9.448;2024-02-14T03:45:18;4.30;85.20
85036;DHT22;75357;49.780;9.448;2024-02-14T03:47:49;4.20;85.40
85036;DHT22;75357;49.780;9.448;2024-02-14T03:50:19;4.20;85.60
85036;DHT22;75357;49.780;9.448;2024-02-14T03:52:48;4.20;86.00
85036;DHT22;75357;49.780;9.448;2024-02-14T03:55:17;4.20;85.40
85036;DHT22;75357;49.780;9.448;2024-02-14T03:57:46;4.30;85.20
85036;DHT22;75357;49.780;9.448;2024-02-14T04:00:15;4.40;85.00
85036;DHT22;75357;49.780;9.448;2024-02-14T04:02:43;4.40;84.50
85036;DHT22;75357;49.780;9.448;2024-02-14T04:05:14;4.30;84.70
85036;DHT22;75357;49.780;9.448;2024-02-14T04:07:42;4.40;84.70
85036;DHT22;75357;49.780;9.448;2024-02-14T04:10:16;4.40;84.80
85036;DHT22;75357;49.780;9.448;2024-02-14T04:12:44;4.30;85.00
85036;DHT22;75357;49.780;9.448;2024-02-14T04:15:13;4.30;85.20
85036;DHT22;75357;49.780;9.448;2024-02-14T04:17:42;4.30;85.40
85036;DHT22;75357;49.780;9.448;2024-02-14T04:20:10;4.30;85.10
85036;DHT22;75357;49.780;9.448;2024-02-14T04:22:40;4.30;85.30
85036;DHT22;75357;49.780;9.448;2024-02-14T04:25:10;4.30;85.10
85036;DHT22;75357;49.780;9.448;2024-02-14T04:27:39;4.30;85.00
85036;DHT22;75357;49.780;9.448;2024-02-14T04:30:08;4.40;85.30
85036;DHT22;75357;49.780;9.448;2024-02-14T04:32:36;4.50;85.10
85036;DHT22;75357;49.780;9.448;2024-02-14T04:35:05;4.50;85.00
85036;DHT22;75357;49.780;9.448;2024-02-14T04:37:35;4.60;84.90
85036;DHT22;75357;49.780;9.448;2024-02-14T04:40:07;4.60;84.70
85036;DHT22;75357;49.780;9.448;2024-02-14T04:42:36;4.60;84.40
85036;DHT22;75357;49.780;9.448;2024-02-14T04:45:06;4.50;84.50
85036;DHT22;75357;49.780;9.448;2024-02-14T04:47:36;4.60;84.30
85036;DHT22;75357;49.780;9.448;2024-02-14T04:50:04;4.70;84.40
85036;DHT22;75357;49.780;9.448;2024-02-14T04:52:34;4.70;84.30
85036;DHT22;75357;49.780;9.448;2024-02-14T04:55:03;4.70;84.00
85036;DHT22;75357;49.780;9.448;2024-02-14T04:57:32;4.70;84.20
85036;DHT22;75357;49.780;9.448;2024-02-14T05:00:03;4.80;84.20
85036;DHT22;75357;49.780;9.448;2024-02-14T05:02:35;4.80;84.40
85036;DHT22;75357;49.780;9.448;2024-02-14T05:05:05;4.80;84.10
85036;DHT22;75357;49.780;9.448;2024-02-14T05:07:35;4.90;84.40
85036;DHT22;75357;49.780;9.448;2024-02-14T05:10:04;4.90;84.40
85036;DHT22;75357;49.780;9.448;2024-02-14T05:12:36;4.90;84.30
85036;DHT22;75357;49.780;9.448;2024-02-14T05:15:05;4.90;84.80
85036;DHT22;75357;49.780;9.448;2024-02-14T05:17:33;5.00;84.70
85036;DHT22;75357;49.780;9.448;2024-02-14T05:20:02;5.10;84.70
85036;DHT22;75357;49.780;9.448;2024-02-14T05:22:36;5.10;84.50
85036;DHT22;75357;49.780;9.448;2024-02-14T05:25:05;5.20;84.50
85036;DHT22;75357;49.780;9.448;2024-02-14T05:27:38;5.20;84.50
85036;DHT22;75357;49.780;9.448;2024-02-14T05:30:07;5.20;84.30
85036;DHT22;75357;49.780;9.448;2024-02-14T05:32:36;5.20;84.20
85036;DHT22;75357;49.780;9.448;2024-02-14T05:35:07;5.20;84.00
85036;DHT22;75357;49.780;9.448;2024-02-14T05:37:36;5.10;84.50
85036;DHT22;75357;49.780;9.448;2024-02-14T05:40:06;5.10;84.70
85036;DHT22;75357;49.780;9.448;2024-02-14T05:42:36;5.10;84.40
85036;DHT22;75357;49.780;9.448;2024-02-14T05:45:05;5.10;84.70
85036;DHT22;75357;49.780;9.448;2024-02-14T05:47:38;5.10;84.70
85036;DHT22;75357;49.780;9.448;2024-02-14T05:50:07;5.20;84.70
85036;DHT22;75357;49.780;9.448;2024-02-14T05:52:38;5.20;84.50
85036;DHT22;75357;49.780;9.448;2024-02-14T05:55:06;5.30;84.60
85036;DHT22;75357;49.780;9.448;2024-02-14T05:57:37;5.30;84.30
85036;DHT22;75357;49.780;9.448;2024-02-14T06:00:07;5.30;84.50
85036;DHT22;75357;49.780;9.448;2024-02-14T06:02:38;5.30;84.70
85036;DHT22;75357;49.780;9.448;2024-02-14T06:05:08;5.30;84.60
85036;DHT22;75357;49.780;9.448;2024-02-14T06:07:38;5.20;85.00
85036;DHT22;75357;49.780;9.448;2024-02-14T06:10:08;5.30;85.60
85036;DHT22;75357;49.780;9.448;2024-02-14T06:12:38;5.30;85.20
85036;DHT22;75357;49.780;9.448;2024-02-14T06:15:08;5.30;85.30
85036;DHT22;75357;49.780;9.448;2024-02-14T06:17:36;5.30;85.00
85036;DHT22;75357;49.780;9.448;2024-02-14T06:20:07;5.40;84.50
85036;DHT22;75357;49.780;9.448;2024-02-14T06:22:36;5.40;84.30
85036;DHT22;75357;49.780;9.448;2024-02-14T06:25:16;5.40;84.30
85036;DHT22;75357;49.780;9.448;2024-02-14T06:27:46;5.30;84.50
85036;DHT22;75357;49.780;9.448;2024-02-14T06:30:14;5.30;85.10
85036;DHT22;75357;49.780;9.448;2024-02-14T06:32:47;5.40;85.40
85036;DHT22;75357;49.780;9.448;2024-02-14T06:35:16;5.50;84.90
85036;DHT22;75357;49.780;9.448;2024-02-14T06:37:49;5.50;85.30
85036;DHT22;75357;49.780;9.448;2024-02-14T06:40:29;5.50;85.10
85036;DHT22;75357;49.780;9.448;2024-02-14T06:42:59;5.50;85.30
85036;DHT22;75357;49.780;9.448;2024-02-14T06:45:28;5.40;85.40
85036;DHT22;75357;49.780;9.448;2024-02-14T06:47:56;5.50;85.60
85036;DHT22;75357;49.780;9.448;2024-02-14T06:50:27;5.50;85.10
85036;DHT22;75357;49.780;9.448;2024-02-14T06:52:56;5.50;85.40
85036;DHT22;75357;49.780;9.448;2024-02-14T06:55:29;5.60;85.50
85036;DHT22;75357;49.780;9.448;2024-02-14T06:58:01;5.60;85.00
85036;DHT22;75357;49.780;9.448;2024-02-14T07:00:32;5.70;84.60
85036;DHT22;75357;49.780;9.448;2024-02-14T07:03:00;5.70;84.60
85036;DHT22;75357;49.780;9.448;2024-02-14T07:05:28;5.60;85.50
85036;DHT22;75357;49.780;9.448;2024-02-14T07:07:57;5.50;85.70
85036;DHT22;75357;49.780;9.448;2024-02-14T07:10:25;5.50;85.90
85036;DHT22;75357;49.780;9.448;2024-02-14T07:12:53;5.60;85.60
85036;DHT22;75357;49.780;9.448;2024-02-14T07:15:23;5.70;85.30
85036;DHT22;75357;49.780;9.448;2024-02-14T07:17:55;5.80;85.10
85036;DHT22;75357;49.780;9.448;2024-02-14T07:20:25;5.90;84.80
85036;DHT22;75357;49.780;9.448;2024-02-14T07:22:54;6.10;84.80
85036;DHT22;75357;49.780;9.448;2024-02-14T07:25:24;6.30;84.60
85036;DHT22;75357;49.780;9.448;2024-02-14T07:27:52;6.40;83.70
85036;DHT22;75357;49.780;9.448;2024-02-14T07:30:21;6.60;83.50
85036;DHT22;75357;49.780;9.448;2024-02-14T07:32:50;6.70;83.10
85036;DHT22;75357;49.780;9.448;2024-02-14T07:35:19;6.90;83.00
85036;DHT22;75357;49.780;9.448;2024-02-14T07:37:48;7.00;82.60
85036;DHT22;75357;49.780;9.448;2024-02-14T07:40:16;7.10;82.30
85036;DHT22;75357;49.780;9.448;2024-02-14T07:42:44;7.20;82.30
85036;DHT22;75357;49.780;9.448;2024-02-14T07:45:13;7.20;82.50
85036;DHT22;75357;49.780;9.448;2024-02-14T07:47:42;7.30;82.30
85036;DHT22;75357;49.780;9.448;2024-02-14T07:50:15;7.40;81.90
85036;DHT22;75357;49.780;9.448;2024-02-14T07:52:44;7.60;82.00
85036;DHT22;75357;49.780;9.448;2024-02-14T07:55:13;7.60;81.50
85036;DHT22;75357;49.780;9.448;2024-02-14T07:57:44;7.70;81.80
85036;DHT22;75357;49.780;9.448;2024-02-14T08:00:13;7.80;81.30
85036;DHT22;75357;49.780;9.448;2024-02-14T08:02:46;7.90;80.10
85036;DHT22;75357;49.780;9.448;2024-02-14T08:05:16;8.10;80.30
85036;DHT22;75357;49.780;9.448;2024-02-14T08:07:45;8.20;79.50
85036;DHT22;75357;49.780;9.448;2024-02-14T08:10:13;8.30;79.50
85036;DHT22;75357;49.780;9.448;2024-02-14T08:12:41;8.40;79.30
85036;DHT22;75357;49.780;9.448;2024-02-14T08:15:10;8.50;79.50
85036;DHT22;75357;49.780;9.448;2024-02-14T08:17:38;8.50;79.40
85036;DHT22;75357;49.780;9.448;2024-02-14T08:20:12;8.50;79.60
85036;DHT22;75357;49.780;9.448;2024-02-14T08:22:42;8.60;79.60
85036;DHT22;75357;49.780;9.448;2024-02-14T08:25:11;8.80;79.40
85036;DHT22;75357;49.780;9.448;2024-02-14T08:27:39;8.90;79.20
85036;DHT22;75357;49.780;9.448;2024-02-14T08:30:08;9.10;79.20
85036;DHT22;75357;49.780;9.448;2024-02-14T08:32:39;9.30;78.70
85036;DHT22;75357;49.780;9.448;2024-02-14T08:35:08;9.40;78.60
85036;DHT22;75357;49.780;9.448;2024-02-14T08:37:38;9.30;78.80
85036;DHT22;75357;49.780;9.448;2024-02-14T08:40:09;9.30;79.40
85036;DHT22;75357;49.780;9.448;2024-02-14T08:42:39;9.20;79.50
85036;DHT22;75357;49.780;9.448;2024-02-14T08:45:08;9.20;80.10
85036;DHT22;75357;49.780;9.448;2024-02-14T08:47:37;9.30;79.80
85036;DHT22;75357;49.780;9.448;2024-02-14T08:50:07;9.30;79.80
85036;DHT22;75357;49.780;9.448;2024-02-14T08:52:37;9.30;80.10
85036;DHT22;75357;49.780;9.448;2024-02-14T08:55:06;9.30;80.20
85036;DHT22;75357;49.780;9.448;2024-02-14T08:57:43;9.30;80.20
85036;DHT22;75357;49.780;9.448;2024-02-14T09:00:13;9.40;79.70
85036;DHT22;75357;49.780;9.448;2024-02-14T09:02:47;9.40;79.50
85036;DHT22;75357;49.780;9.448;2024-02-14T09:05:15;9.60;79.50
85036;DHT22;75357;49.780;9.448;2024-02-14T09:07:46;9.80;79.10
85036;DHT22;75357;49.780;9.448;2024-02-14T09:10:14;10.00;77.20
85036;DHT22;75357;49.780;9.448;2024-02-14T09:12:44;9.90;78.00
85036;DHT22;75357;49.780;9.448;2024-02-14T09:15:13;9.90;78.70
85036;DHT22;75357;49.780;9.448;2024-02-14T09:17:41;9.80;78.70
85036;DHT22;75357;49.780;9.448;2024-02-14T09:20:10;9.90;79.10
85036;DHT22;75357;49.780;9.448;2024-02-14T09:22:41;9.90;79.20
85036;DHT22;75357;49.780;9.448;2024-02-14T09:25:10;9.90;79.10
85036;DHT22;75357;49.780;9.448;2024-02-14T09:27:38;10.00;78.20
85036;DHT22;75357;49.780;9.448;2024-02-14T09:30:10;10.10;77.90
85036;DHT22;75357;49.780;9.448;2024-02-14T09:32:54;10.00;78.10
85036;DHT22;75357;49.780;9.448;2024-02-14T09:35:22;10.20;78.00
85036;DHT22;75357;49.780;9.448;2024-02-14T09:37:54;10.30;77.70
85036;DHT22;75357;49.780;9.448;2024-02-14T09:40:22;10.30;77.60
85036;DHT22;75357;49.780;9.448;2024-02-14T09:42:54;10.30;77.60
85036;DHT22;75357;49.780;9.448;2024-02-14T09:45:25;10.50;77.00
85036;DHT22;75357;49.780;9.448;2024-02-14T09:47:54;10.60;76.80
85036;DHT22;75357;49.780;9.448;2024-02-14T09:50:23;10.80;76.90
85036;DHT22;75357;49.780;9.448;2024-02-14T09:52:53;10.90;76.00
85036;DHT22;75357;49.780;9.448;2024-02-14T09:55:23;10.80;76.20
85036;DHT22;75357;49.780;9.448;2024-02-14T09:57:53;10.90;76.00
85036;DHT22;75357;49.780;9.448;2024-02-14T10:00:23;10.80;76.20
85036;DHT22;75357;49.780;9.448;2024-02-14T10:02:52;10.90;75.90
85036;DHT22;75357;49.780;9.448;2024-02-14T10:05:21;10.90;75.90
85036;DHT22;75357;49.780;9.448;2024-02-14T10:07:49;10.80;76.40
85036;DHT22;75357;49.780;9.448;2024-02-14T10:10:17;10.70;76.80
85036;DHT22;75357;49.780;9.448;2024-02-14T10:12:46;10.80;76.70
85036;DHT22;75357;49.780;9.448;2024-02-14T10:15:14;10.90;76.50
85036;DHT22;75357;49.780;9.448;2024-02-14T10:17:45;10.80;76.30
85036;DHT22;75357;49.780;9.448;2024-02-14T10:20:17;10.80;75.80
85036;DHT22;75357;49.780;9.448;2024-02-14T10:22:45;10.90;76.40
85036;DHT22;75357;49.780;9.448;2024-02-14T10:25:13;11.00;76.00
85036;DHT22;75357;49.780;9.448;2024-02-14T10:27:42;10.90;75.80
85036;DHT22;75357;49.780;9.448;2024-02-14T10:30:11;10.80;76.40
85036;DHT22;75357;49.780;9.448;2024-02-14T10:32:40;10.80;76.40
85036;DHT22;75357;49.780;9.448;2024-02-14T10:35:16;10.80;76.70
85036;DHT22;75357;49.780;9.448;2024-02-14T10:37:45;10.80;76.50
85036;DHT22;75357;49.780;9.448;2024-02-14T10:40:15;10.80;76.50
85036;DHT22;75357;49.780;9.448;2024-02-14T10:42:44;10.80;76.70
85036;DHT22;75357;49.780;9.448;2024-02-14T10:45:12;10.90;76.70
85036;DHT22;75357;49.780;9.448;2024-02-14T10:47:42;10.90;76.60
85036;DHT22;75357;49.780;9.448;2024-02-14T10:50:18;11.00;76.70
85036;DHT22;75357;49.780;9.448;2024-02-14T10:52:49;11.20;76.80
85036;DHT22;75357;49.780;9.448;2024-02-14T10:55:17;11.20;76.40
85036;DHT22;75357;49.780;9.448;2024-02-14T10:57:48;11.30;76.90
85036;DHT22;75357;49.780;9.448;2024-02-14T11:00:17;11.30;76.90
85036;DHT22;75357;49.780;9.448;2024-02-14T11:02:47;11.40;77.60
85036;DHT22;75357;49.780;9.448;2024-02-14T11:05:19;11.60;79.30
85036;DHT22;75357;49.780;9.448;2024-02-14T11:07:51;11.60;78.20
85036;DHT22;75357;49.780;9.448;2024-02-14T11:10:21;11.10;80.20
85036;DHT22;75357;49.780;9.448;2024-02-14T11:12:50;11.00;80.90
85036;DHT22;75357;49.780;9.448;2024-02-14T11:15:21;10.90;81.50
85036;DHT22;75357;49.780;9.448;2024-02-14T11:17:49;10.90;81.90
85036;DHT22;75357;49.780;9.448;2024-02-14T11:20:30;10.90;82.20
85036;DHT22;75357;49.780;9.448;2024-02-14T11:23:02;10.80;82.50
85036;DHT22;75357;49.780;9.448;2024-02-14T11:25:32;10.90;83.20
85036;DHT22;75357;49.780;9.448;2024-02-14T11:28:13;10.70;83.90
85036;DHT22;75357;49.780;9.448;2024-02-14T11:30:42;10.70;84.00
85036;DHT22;75357;49.780;9.448;2024-02-14T11:33:14;10.60;84.10
85036;DHT22;75357;49.780;9.448;2024-02-14T11:35:48;10.70;84.50
85036;DHT22;75357;49.780;9.448;2024-02-14T11:38:19;10.80;84.30
85036;DHT22;75357;49.780;9.448;2024-02-14T11:40:47;10.70;84.50
85036;DHT22;75357;49.780;9.448;2024-02-14T11:43:19;10.80;85.20
85036;DHT22;75357;49.780;9.448;2024-02-14T11:45:48;10.60;85.50
85036;DHT22;75357;49.780;9.448;2024-02-14T11:48:19;10.50;86.50
85036;DHT22;75357;49.780;9.448;2024-02-14T11:50:53;10.60;85.40
85036;DHT22;75357;49.780;9.448;2024-02-14T11:53:22;10.70;85.90
85036;DHT22;75357;49.780;9.448;2024-02-14T11:55:52;10.90;85.00
85036;DHT22;75357;49.780;9.448;2024-02-14T11:58:21;11.10;85.10
85036;DHT22;75357;49.780;9.448;2024-02-14T12:00:49;10.90;85.40
85036;DHT22;75357;49.780;9.448;2024-02-14T12:03:20;10.80;85.60
85036;DHT22;75357;49.780;9.448;2024-02-14T12:05:51;10.80;85.90
85036;DHT22;75357;49.780;9.448;2024-02-14T12:08:21;10.90;85.50
85036;DHT22;75357;49.780;9.448;2024-02-14T12:10:50;11.00;85.60
85036;DHT22;75357;49.780;9.448;2024-02-14T12:13:20;11.10;85.10
85036;DHT22;75357;49.780;9.448;2024-02-14T12:15:50;11.20;84.50
85036;DHT22;75357;49.780;9.448;2024-02-14T12:18:20;11.30;84.30
85036;DHT22;75357;49.780;9.448;2024-02-14T12:20:51;11.30;83.60
85036;DHT22;75357;49.780;9.448;2024-02-14T12:23:22;11.30;84.70
85036;DHT22;75357;49.780;9.448;2024-02-14T12:25:53;11.20;84.40
85036;DHT22;75357;49.780;9.448;2024-02-14T12:28:23;11.30;83.90
85036;DHT22;75357;49.780;9.448;2024-02-14T12:30:52;11.30;83.90
85036;DHT22;75357;49.780;9.448;2024-02-14T12:33:24;11.10;84.50
85036;DHT22;75357;49.780;9.448;2024-02-14T12:35:56;10.80;85.00
85036;DHT22;75357;49.780;9.448;2024-02-14T12:38:26;10.60;85.10
85036;DHT22;75357;49.780;9.448;2024-02-14T12:40:54;10.40;85.70
85036;DHT22;75357;49.780;9.448;2024-02-14T12:43:22;10.50;85.50
85036;DHT22;75357;49.780;9.448;2024-02-14T12:45:51;10.70;85.20
85036;DHT22;75357;49.780;9.448;2024-02-14T12:48:23;10.90;84.90
85036;DHT22;75357;49.780;9.448;2024-02-14T12:50:55;11.10;84.00
85036;DHT22;75357;49.780;9.448;2024-02-14T12:53:25;11.40;82.60
85036;DHT22;75357;49.780;9.448;2024-02-14T12:55:54;11.70;79.80
85036;DHT22;75357;49.780;9.448;2024-02-14T12:58:22;12.00;79.70
85036;DHT22;75357;49.780;9.448;2024-02-14T13:00:50;12.20;79.00
85036;DHT22;75357;49.780;9.448;2024-02-14T13:03:19;11.90;79.30
85036;DHT22;75357;49.780;9.448;2024-02-14T13:05:48;11.80;80.00
85036;DHT22;75357;49.780;9.448;2024-02-14T13:08:18;11.90;80.40
85036;DHT22;75357;49.780;9.448;2024-02-14T13:10:46;12.00;78.20
85036;DHT22;75357;49.780;9.448;2024-02-14T13:13:14;12.10;79.00
85036;DHT22;75357;49.780;9.448;2024-02-14T13:15:45;12.10;78.00
85036;DHT22;75357;49.780;9.448;2024-02-14T13:18:14;11.80;78.60
85036;DHT22;75357;49.780;9.448;2024-02-14T13:20:42;11.40;79.50
85036;DHT22;75357;49.780;9.448;2024-02-14T13:23:12;11.30;80.00
85036;DHT22;75357;49.780;9.448;2024-02-14T13:25:46;11.50;80.30
85036;DHT22;75357;49.780;9.448;2024-02-14T13:28:15;11.60;81.30
85036;DHT22;75357;49.780;9.448;2024-02-14T13:30:44;11.70;81.10
85036;DHT22;75357;49.780;9.448;2024-02-14T13:33:13;11.90;78.50
85036;DHT22;75357;49.780;9.448;2024-02-14T13:35:42;11.80;78.40
85036;DHT22;75357;49.780;9.448;2024-02-14T13:38:10;11.80;79.30
85036;DHT22;75357;49.780;9.448;2024-02-14T13:40:38;11.80;79.80
85036;DHT22;75357;49.780;9.448;2024-02-14T13:43:08;11.90;78.50
85036;DHT22;75357;49.780;9.448;2024-02-14T13:45:43;11.80;77.50
85036;DHT22;75357;49.780;9.448;2024-02-14T13:48:12;11.80;77.90
85036;DHT22;75357;49.780;9.448;2024-02-14T13:50:41;11.80;77.90
85036;DHT22;75357;49.780;9.448;2024-02-14T13:53:10;11.60;78.30
85036;DHT22;75357;49.780;9.448;2024-02-14T13:55:38;11.70;78.10
85036;DHT22;75357;49.780;9.448;2024-02-14T13:58:08;11.80;78.90
85036;DHT22;75357;49.780;9.448;2024-02-14T14:00:42;11.90;77.30
85036;DHT22;75357;49.780;9.448;2024-02-14T14:03:11;11.70;77.60
85036;DHT22;75357;49.780;9.448;2024-02-14T14:05:40;11.70;78.20
85036;DHT22;75357;49.780;9.448;2024-02-14T14:08:08;11.70;77.90
85036;DHT22;75357;49.780;9.448;2024-02-14T14:10:37;11.80;78.30
85036;DHT22;75357;49.780;9.448;2024-02-14T14:13:06;11.80;77.60
85036;DHT22;75357;49.780;9.448;2024-02-14T14:15:36;11.60;77.40
85036;DHT22;75357;49.780;9.448;2024-02-14T14:18:05;11.50;78.00
85036;DHT22;75357;49.780;9.448;2024-02-14T14:20:35;11.60;79.00
85036;DHT22;75357;49.780;9.448;2024-02-14T14:23:04;11.60;78.30
85036;DHT22;75357;49.780;9.448;2024-02-14T14:25:33;11.60;78.90
85036;DHT22;75357;49.780;9.448;2024-02-14T14:28:02;11.60;78.00
85036;DHT22;75357;49.780;9.448;2024-02-14T14:30:35;11.50;78.80
85036;DHT22;75357;49.780;9.448;2024-02-14T14:33:04;11.60;78.20
85036;DHT22;75357;49.780;9.448;2024-02-14T14:35:34;11.60;78.20
85036;DHT22;75357;49.780;9.448;2024-02-14T14:38:03;11.60;78.70
85036;DHT22;75357;49.780;9.448;2024-02-14T14:40:32;11.60;78.80
85036;DHT22;75357;49.780;9.448;2024-02-14T14:43:00;11.60;78.60
85036;DHT22;75357;49.780;9.448;2024-02-14T14:45:29;11.60;78.30
85036;DHT22;75357;49.780;9.448;2024-02-14T14:47:59;11.50;78.70
85036;DHT22;75357;49.780;9.448;2024-02-14T14:50:30;11.40;79.50
85036;DHT22;75357;49.780;9.448;2024-02-14T14:52:59;11.50;79.70
85036;DHT22;75357;49.780;9.448;2024-02-14T14:55:49;11.40;79.10
85036;DHT22;75357;49.780;9.448;2024-02-14T14:58:17;11.40;79.30
85036;DHT22;75357;49.780;9.448;2024-02-14T15:00:45;11.50;80.20
85036;DHT22;75357;49.780;9.448;2024-02-14T15:03:15;11.50;80.60
85036;DHT22;75357;49.780;9.448;2024-02-14T15:05:43;11.70;80.00
85036;DHT22;75357;49.780;9.448;2024-02-14T15:08:12;11.60;79.10
85036;DHT22;75357;49.780;9.448;2024-02-14T15:10:40;11.60;80.00
85036;DHT22;75357;49.780;9.448;2024-02-14T15:13:10;11.60;80.10
85036;DHT22;75357;49.780;9.448;2024-02-14T15:15:40;11.50;80.80
85036;DHT22;75357;49.780;9.448;2024-02-14T15:18:09;11.60;80.60
85036;DHT22;75357;49.780;9.448;2024-02-14T15:20:39;11.60;80.40
85036;DHT22;75357;49.780;9.448;2024-02-14T15:23:08;11.70;80.60
85036;DHT22;75357;49.780;9.448;2024-02-14T15:25:36;11.70;80.60
85036;DHT22;75357;49.780;9.448;2024-02-14T15:28:07;11.70;80.40
85036;DHT22;75357;49.780;9.448;2024-02-14T15:30:40;11.70;80.90
85036;DHT22;75357;49.780;9.448;2024-02-14T15:33:26;11.60;80.90
85036;DHT22;75357;49.780;9.448;2024-02-14T15:35:57;11.60;81.40
85036;DHT22;75357;49.780;9.448;2024-02-14T15:38:28;11.50;82.00
85036;DHT22;75357;49.780;9.448;2024-02-14T15:41:00;11.40;82.30
85036;DHT22;75357;49.780;9.448;2024-02-14T15:43:30;11.40;83.00
85036;DHT22;75357;49.780;9.448;2024-02-14T15:46:00;11.40;82.80
85036;DHT22;75357;49.780;9.448;2024-02-14T15:48:29;11.40;83.00
85036;DHT22;75357;49.780;9.448;2024-02-14T15:50:59;11.40;83.00
85036;DHT22;75357;49.780;9.448;2024-02-14T15:53:28;11.30;82.70
85036;DHT22;75357;49.780;9.448;2024-02-14T15:56:01;11.30;83.00